Time;durP1;ratioP1;P1;durP2;ratioP2;P2;SDS_P1;SDS_P2;PMS_P1;PMS_P2;Temp;Humidity;BMP_temperature;BMP_pressure;BME280_temperature;BME280_humidity;BME280_pressure;Samples;Min_cycle;Max_cycle;Signal;HPM_P1;HPM_P2
2022/11/21 00:01:17;;;;;;;3.88;2.30;;;4.60;99.90;;;;;;5012354;28;20046;-71
2022/11/21 00:03:45;;;;;;;3.72;2.40;;;4.50;99.90;;;;;;5016873;28;20524;-69
2022/11/21 00:06:14;;;;;;;4.43;2.60;;;4.60;99.90;;;;;;5021340;28;20521;-69
2022/11/21 00:08:43;;;;;;;3.13;2.10;;;4.60;99.90;;;;;;5021413;28;20528;-69
2022/11/21 00:11:11;;;;;;;5.00;2.22;;;4.70;99.90;;;;;;4999325;28;20045;-69
2022/11/21 00:13:39;;;;;;;4.70;2.30;;;4.70;99.90;;;;;;5020847;28;20053;-68
2022/11/21 00:16:11;;;;;;;6.72;2.67;;;4.70;99.90;;;;;;5027209;28;20045;-70
2022/11/21 00:18:38;;;;;;;;;;;4.80;99.90;;;;;;5030238;28;20474;-69
2022/11/21 00:21:17;;;;;;;4.72;2.33;;;4.80;99.90;;;;;;4995712;28;20403;-70
2022/11/21 00:23:46;;;;;;;3.75;2.20;;;4.80;99.90;;;;;;5026698;28;20068;-69
2022/11/21 00:26:15;;;;;;;5.53;2.13;;;4.80;99.90;;;;;;5008822;28;20073;-70
2022/11/21 00:28:43;;;;;;;3.50;2.28;;;4.90;99.90;;;;;;5019590;28;20091;-69
2022/11/21 00:31:22;;;;;;;4.03;2.30;;;4.80;99.90;;;;;;5028679;28;20163;-70
2022/11/21 00:33:49;;;;;;;4.40;2.20;;;4.90;99.90;;;;;;5018419;28;20056;-69
2022/11/21 00:36:16;;;;;;;5.15;2.28;;;4.90;99.90;;;;;;5029997;28;20128;-69
2022/11/21 00:38:44;;;;;;;4.82;2.42;;;4.90;99.90;;;;;;5009325;28;20088;-69
2022/11/21 00:41:11;;;;;;;2.92;1.98;;;5.00;99.90;;;;;;5010626;28;20096;-69
2022/11/21 00:43:38;;;;;;;3.63;2.17;;;4.90;99.90;;;;;;5011812;28;20053;-69
2022/11/21 00:46:06;;;;;;;6.55;2.47;;;4.90;99.90;;;;;;5018934;28;20042;-69
2022/11/21 00:48:33;;;;;;;6.93;2.40;;;5.00;99.90;;;;;;4993712;28;20050;-69
2022/11/21 00:51:00;;;;;;;4.68;2.40;;;5.10;99.90;;;;;;5028985;28;20419;-68
2022/11/21 00:53:28;;;;;;;6.05;2.30;;;5.20;99.90;;;;;;5016307;28;20058;-69
2022/11/21 00:55:56;;;;;;;4.38;2.83;;;5.10;99.90;;;;;;5015373;28;20416;-69
2022/11/21 00:58:24;;;;;;;4.07;2.28;;;5.10;99.90;;;;;;5021157;28;20041;-69
2022/11/21 01:00:51;;;;;;;4.15;2.55;;;5.10;99.90;;;;;;5005667;28;20034;-70
2022/11/21 01:03:19;;;;;;;4.63;2.47;;;5.10;99.90;;;;;;5017592;28;20049;-69
2022/11/21 01:05:46;;;;;;;4.63;2.30;;;5.20;99.90;;;;;;5020537;28;20064;-69
2022/11/21 01:08:14;;;;;;;6.22;2.50;;;5.20;99.90;;;;;;4991942;28;20141;-69
2022/11/21 01:10:41;;;;;;;6.72;2.88;;;5.20;99.90;;;;;;5024613;28;20053;-69
2022/11/21 01:13:08;;;;;;;6.47;2.33;;;5.30;99.90;;;;;;5024930;28;20547;-70
2022/11/21 01:15:35;;;;;;;4.28;2.17;;;5.30;99.90;;;;;;5021719;28;20140;-69
2022/11/21 01:18:03;;;;;;;6.25;2.38;;;5.30;99.90;;;;;;5026479;28;20068;-70
2022/11/21 01:20:30;;;;;;;6.60;2.42;;;5.30;99.90;;;;;;5027053;28;20045;-68
2022/11/21 01:22:57;;;;;;;5.35;2.22;;;5.40;99.90;;;;;;5011806;28;20505;-69
2022/11/21 01:25:25;;;;;;;5.32;2.33;;;5.40;99.90;;;;;;4999392;28;20492;-69
2022/11/21 01:27:52;;;;;;;5.25;2.42;;;5.40;99.90;;;;;;5025482;28;20046;-69
2022/11/21 01:30:20;;;;;;;7.43;2.08;;;5.40;99.90;;;;;;5028621;28;20496;-69
2022/11/21 01:32:48;;;;;;;5.43;1.95;;;5.50;99.90;;;;;;5007118;28;20049;-69
2022/11/21 01:35:16;;;;;;;6.47;2.22;;;5.40;99.90;;;;;;5021152;28;20042;-67
2022/11/21 01:37:48;;;;;;;3.53;1.98;;;5.40;99.90;;;;;;5026512;28;20109;-70
2022/11/21 01:40:16;;;;;;;7.57;2.08;;;5.40;99.90;;;;;;5025633;28;20053;-69
2022/11/21 01:43:13;;;;;;;5.70;2.20;;;5.50;99.90;;;;;;5028373;28;20056;-69
2022/11/21 01:45:51;;;;;;;6.60;2.20;;;5.50;99.90;;;;;;5015060;28;20405;-70
2022/11/21 01:48:23;;;;;;;4.65;2.00;;;5.40;99.90;;;;;;5014540;28;20145;-70
2022/11/21 01:50:51;;;;;;;6.63;2.15;;;5.50;99.90;;;;;;5018346;28;20548;-69
2022/11/21 01:53:18;;;;;;;9.68;2.30;;;5.50;99.90;;;;;;5023006;28;20053;-71
2022/11/21 01:55:46;;;;;;;6.95;2.30;;;5.50;99.90;;;;;;5023186;28;20088;-69
2022/11/21 01:58:13;;;;;;;4.72;2.28;;;5.40;99.90;;;;;;5017434;28;20076;-70
2022/11/21 02:00:44;;;;;;;5.50;2.13;;;5.40;99.90;;;;;;5026596;28;20516;-70
2022/11/21 02:03:18;;;;;;;5.93;2.00;;;5.50;99.90;;;;;;5019605;28;20056;-69
2022/11/21 02:05:46;;;;;;;5.28;2.00;;;5.50;99.90;;;;;;5023509;28;20395;-69
2022/11/21 02:08:18;;;;;;;7.13;2.53;;;5.40;99.90;;;;;;5028447;28;20057;-69
2022/11/21 02:11:01;;;;;;;8.10;2.35;;;5.50;99.90;;;;;;5026897;28;20065;-70
2022/11/21 02:13:29;;;;;;;5.07;2.17;;;5.50;99.90;;;;;;5019190;28;20038;-70
2022/11/21 02:15:57;;;;;;;7.45;2.47;;;5.40;99.90;;;;;;5027596;28;20515;-69
2022/11/21 02:18:24;;;;;;;7.22;2.30;;;5.30;99.90;;;;;;5028320;28;20052;-69
2022/11/21 02:20:59;;;;;;;5.40;1.88;;;5.40;99.90;;;;;;5032804;28;20055;-69
2022/11/21 02:23:44;;;;;;;10.35;1.92;;;5.40;99.90;;;;;;5026846;28;20122;-70
2022/11/21 02:26:12;;;;;;;6.88;1.92;;;5.40;99.90;;;;;;5013306;28;20072;-70
2022/11/21 02:28:40;;;;;;;9.23;2.35;;;5.40;99.90;;;;;;5029918;28;20052;-70
2022/11/21 02:31:07;;;;;;;6.32;2.00;;;5.40;99.90;;;;;;5028945;28;20046;-69
2022/11/21 02:33:34;;;;;;;6.32;1.98;;;5.40;99.90;;;;;;5031208;28;20116;-71
2022/11/21 02:36:02;;;;;;;5.70;2.05;;;5.40;99.90;;;;;;5019199;28;20046;-70
2022/11/21 02:38:36;;;;;;;4.40;1.92;;;5.40;99.90;;;;;;5012720;28;20493;-70
2022/11/21 02:41:25;;;;;;;6.43;1.77;;;5.40;99.90;;;;;;5007433;28;20599;-69
2022/11/21 02:44:07;;;;;;;6.63;2.10;;;5.40;99.90;;;;;;5008406;28;20539;-70
2022/11/21 02:46:35;;;;;;;4.68;1.92;;;5.40;99.90;;;;;;5023886;28;20052;-70
2022/11/21 02:49:07;;;;;;;9.35;2.28;;;5.30;99.90;;;;;;5030996;28;20049;-70
2022/11/21 02:51:34;;;;;;;4.03;1.70;;;5.30;99.90;;;;;;5016327;28;20049;-70
2022/11/21 02:54:01;;;;;;;5.60;2.00;;;5.30;99.90;;;;;;5027852;28;20385;-70
2022/11/21 02:56:29;;;;;;;5.00;1.92;;;5.30;99.90;;;;;;5020319;28;20334;-70
2022/11/21 02:58:56;;;;;;;4.22;2.05;;;5.20;99.90;;;;;;5009002;28;20056;-70
2022/11/21 03:01:24;;;;;;;4.82;2.05;;;5.20;99.90;;;;;;5026128;28;20038;-70
2022/11/21 03:03:51;;;;;;;5.70;1.88;;;5.10;99.90;;;;;;5022395;28;20042;-70
2022/11/21 03:06:18;;;;;;;5.22;1.63;;;5.20;99.90;;;;;;5030884;28;20052;-69
2022/11/21 03:08:46;;;;;;;4.10;1.80;;;5.10;99.90;;;;;;5014105;28;20119;-69
2022/11/21 03:11:13;;;;;;;5.85;1.75;;;5.10;99.90;;;;;;5025749;28;20050;-71
2022/11/21 03:13:40;;;;;;;5.45;1.80;;;5.20;99.90;;;;;;5018691;28;20513;-70
2022/11/21 03:16:07;;;;;;;5.72;1.63;;;5.20;99.90;;;;;;5028462;28;20439;-70
2022/11/21 03:18:35;;;;;;;6.38;1.70;;;5.10;99.90;;;;;;5025692;28;20065;-70
2022/11/21 03:21:02;;;;;;;5.15;1.70;;;5.10;99.90;;;;;;5026565;28;20033;-69
2022/11/21 03:23:29;;;;;;;7.55;1.95;;;5.10;99.90;;;;;;5029294;28;20497;-70
2022/11/21 03:25:59;;;;;;;4.95;1.80;;;5.10;99.90;;;;;;5012608;28;20053;-70
2022/11/21 03:28:26;;;;;;;7.25;1.70;;;5.00;99.90;;;;;;5009860;28;20339;-69
2022/11/21 03:30:53;;;;;;;6.25;1.80;;;5.00;99.90;;;;;;5015512;28;20112;-71
2022/11/21 03:33:20;;;;;;;7.60;1.63;;;5.00;99.90;;;;;;5024481;28;20444;-71
2022/11/21 03:35:48;;;;;;;5.15;1.95;;;5.10;99.90;;;;;;5019824;28;20137;-71
2022/11/21 03:38:15;;;;;;;5.75;1.60;;;5.10;99.90;;;;;;5029432;28;20420;-69
2022/11/21 03:40:42;;;;;;;8.30;2.00;;;5.10;99.90;;;;;;5023655;28;20531;-69
2022/11/21 03:43:10;;;;;;;9.82;1.95;;;5.00;99.90;;;;;;5002508;28;20049;-69
2022/11/21 03:45:37;;;;;;;6.20;1.88;;;5.00;99.90;;;;;;5024063;28;20173;-71
2022/11/21 03:48:05;;;;;;;3.83;1.63;;;5.00;99.90;;;;;;5005899;28;20092;-69
2022/11/21 03:50:32;;;;;;;4.57;1.85;;;5.10;99.90;;;;;;5019966;28;20103;-70
2022/11/21 03:52:59;;;;;;;6.53;2.25;;;5.10;99.90;;;;;;5009078;28;20148;-69
2022/11/21 03:55:27;;;;;;;3.85;1.98;;;5.10;99.90;;;;;;5015521;28;20046;-70
2022/11/21 03:57:54;;;;;;;8.52;2.58;;;5.20;99.90;;;;;;5029796;28;20411;-71
2022/11/21 04:00:21;;;;;;;6.57;2.03;;;5.20;99.90;;;;;;5007739;28;20168;-71
2022/11/21 04:02:49;;;;;;;7.53;2.30;;;5.20;99.90;;;;;;5019128;28;20053;-69
2022/11/21 04:05:16;;;;;;;5.13;2.03;;;5.20;99.90;;;;;;5020305;28;20053;-70
2022/11/21 04:07:45;;;;;;;7.05;2.05;;;5.20;99.90;;;;;;5017445;28;20124;-70
2022/11/21 04:10:12;;;;;;;6.85;2.40;;;5.20;99.90;;;;;;5029654;28;20271;-70
2022/11/21 04:12:39;;;;;;;3.80;2.17;;;5.30;99.90;;;;;;5030786;28;20119;-69
2022/11/21 04:15:07;;;;;;;6.35;2.00;;;5.30;99.90;;;;;;5013372;28;20468;-70
2022/11/21 04:17:40;;;;;;;5.43;2.05;;;5.30;99.90;;;;;;5029708;28;20457;-69
2022/11/21 04:20:08;;;;;;;11.30;2.08;;;5.30;99.90;;;;;;5001227;28;20099;-70
2022/11/21 04:22:35;;;;;;;6.03;1.60;;;5.30;99.90;;;;;;5029895;28;20083;-70
2022/11/21 04:25:03;;;;;;;4.32;1.83;;;5.30;99.90;;;;;;5025632;28;20334;-70
2022/11/21 04:27:30;;;;;;;7.55;2.20;;;5.30;99.90;;;;;;5021974;28;20479;-69
2022/11/21 04:29:58;;;;;;;6.95;2.05;;;5.30;99.90;;;;;;5028188;28;20128;-70
2022/11/21 04:32:25;;;;;;;5.53;1.90;;;5.30;99.90;;;;;;5030412;28;20068;-70
2022/11/21 04:34:52;;;;;;;7.32;1.98;;;5.30;99.90;;;;;;5021872;28;20057;-70
2022/11/21 04:37:20;;;;;;;7.25;1.73;;;5.30;99.90;;;;;;5016546;28;20060;-69
2022/11/21 04:39:47;;;;;;;7.00;2.00;;;5.30;99.90;;;;;;5026076;28;20037;-69
2022/11/21 04:42:14;;;;;;;12.30;1.83;;;5.30;99.90;;;;;;5003085;28;20136;-70
2022/11/21 04:44:42;;;;;;;4.78;1.58;;;5.30;99.90;;;;;;5003315;28;20049;-69
2022/11/21 04:47:09;;;;;;;5.25;1.70;;;5.30;99.90;;;;;;5024608;28;20511;-70
2022/11/21 04:49:36;;;;;;;6.57;1.73;;;5.30;99.90;;;;;;5015557;28;20380;-68
2022/11/21 04:52:04;;;;;;;8.07;2.30;;;5.40;99.90;;;;;;5023077;28;20575;-70
2022/11/21 04:54:31;;;;;;;4.65;1.70;;;5.30;99.90;;;;;;5029737;28;20455;-68
2022/11/21 04:56:59;;;;;;;8.20;2.33;;;5.40;99.90;;;;;;5010468;28;20045;-68
2022/11/21 04:59:26;;;;;;;7.57;1.80;;;5.40;99.90;;;;;;5026112;28;20124;-69
2022/11/21 05:01:53;;;;;;;3.95;1.70;;;5.40;99.90;;;;;;5003310;28;20505;-69
2022/11/21 05:04:21;;;;;;;3.53;1.70;;;5.40;99.90;;;;;;5015974;28;20574;-69
2022/11/21 05:06:48;;;;;;;4.78;1.60;;;5.40;99.90;;;;;;5029004;28;20476;-68
2022/11/21 05:09:15;;;;;;;5.90;1.60;;;5.40;99.90;;;;;;5022243;28;20590;-69
2022/11/21 05:14:28;;;;;;;3.90;1.73;;;5.40;99.90;;;;;;5021272;28;20046;-69
2022/11/21 05:16:56;;;;;;;6.97;2.47;;;5.30;99.90;;;;;;5009666;28;20049;-68
2022/11/21 05:19:23;;;;;;;4.50;1.85;;;5.40;99.90;;;;;;5025532;28;20045;-68
2022/11/21 05:21:50;;;;;;;6.60;1.77;;;5.30;99.90;;;;;;5008658;28;20045;-70
2022/11/21 05:24:18;;;;;;;5.28;1.70;;;5.40;99.90;;;;;;5024577;28;20153;-67
2022/11/21 05:26:45;;;;;;;4.38;1.50;;;5.30;99.90;;;;;;5015389;28;20496;-69
2022/11/21 05:29:12;;;;;;;6.80;2.00;;;5.30;99.90;;;;;;5028152;28;20519;-68
2022/11/21 05:31:40;;;;;;;6.13;1.50;;;5.20;99.90;;;;;;5021385;28;20045;-71
2022/11/21 05:34:07;;;;;;;5.57;1.55;;;5.20;99.90;;;;;;5004008;28;20057;-69
2022/11/21 05:36:35;;;;;;;5.65;1.80;;;5.10;99.90;;;;;;5001262;28;20141;-69
2022/11/21 05:39:02;;;;;;;4.20;1.80;;;5.10;99.90;;;;;;5017292;28;20050;-69
2022/11/21 05:41:30;;;;;;;4.55;1.40;;;5.10;99.90;;;;;;5029785;28;20128;-70
2022/11/21 05:43:57;;;;;;;4.82;1.45;;;5.00;99.90;;;;;;5009908;28;20046;-69
2022/11/21 05:46:25;;;;;;;5.20;1.38;;;4.90;99.90;;;;;;5021834;28;20057;-70
2022/11/21 05:48:54;;;;;;;6.13;1.50;;;4.90;99.90;;;;;;5011025;28;20053;-69
2022/11/21 05:51:21;;;;;;;2.95;1.35;;;4.80;99.90;;;;;;5022154;28;20496;-69
2022/11/21 05:53:49;;;;;;;2.65;1.48;;;4.80;99.90;;;;;;5041983;28;20484;-69
2022/11/21 05:56:18;;;;;;;2.70;1.50;;;4.80;99.90;;;;;;5032099;28;20053;-70
2022/11/21 05:58:45;;;;;;;3.25;1.60;;;4.80;99.90;;;;;;5025331;28;20479;-69
2022/11/21 06:01:14;;;;;;;2.22;1.48;;;4.80;99.90;;;;;;5023846;28;20166;-69
2022/11/21 06:03:42;;;;;;;4.32;1.40;;;4.70;99.90;;;;;;5002703;28;20041;-69
2022/11/21 06:06:14;;;;;;;6.53;1.40;;;4.70;99.90;;;;;;5026606;28;20075;-70
2022/11/21 06:08:48;;;;;;;2.88;1.48;;;4.70;99.90;;;;;;5013717;28;20479;-69
2022/11/21 06:11:16;;;;;;;2.80;1.50;;;4.60;99.90;;;;;;5020195;28;20476;-68
2022/11/21 06:13:43;;;;;;;2.92;1.27;;;4.50;99.90;;;;;;5026240;28;20061;-70
2022/11/21 06:16:13;;;;;;;1.90;1.20;;;4.50;99.90;;;;;;5020828;28;20395;-67
2022/11/21 06:18:43;;;;;;;2.65;1.40;;;4.50;99.90;;;;;;5024565;28;20038;-68
2022/11/21 06:21:19;;;;;;;3.03;1.10;;;4.50;99.90;;;;;;5005208;28;20033;-68
2022/11/21 06:23:49;;;;;;;4.28;1.33;;;4.40;99.90;;;;;;5026906;28;20112;-68
2022/11/21 06:26:19;;;;;;;2.90;1.30;;;4.50;99.90;;;;;;5021903;28;20518;-68
2022/11/21 06:28:47;;;;;;;3.35;1.70;;;4.50;99.90;;;;;;5016889;28;20077;-70
2022/11/21 06:31:14;;;;;;;3.38;1.42;;;4.50;99.90;;;;;;5020039;28;20061;-68
2022/11/21 06:33:42;;;;;;;2.47;1.30;;;4.50;99.90;;;;;;5007679;28;20141;-70
2022/11/21 06:36:15;;;;;;;5.32;2.72;;;4.60;99.90;;;;;;5019898;28;20072;-68
2022/11/21 06:38:44;;;;;;;3.03;1.50;;;4.60;99.90;;;;;;5028731;28;20041;-68
2022/11/21 06:41:23;;;;;;;2.28;1.27;;;4.70;99.90;;;;;;5022410;28;20137;-69
2022/11/21 06:43:50;;;;;;;3.05;1.40;;;4.60;99.90;;;;;;5018395;28;20140;-69
2022/11/21 06:46:18;;;;;;;5.05;1.50;;;4.70;99.90;;;;;;5019490;28;20048;-68
2022/11/21 06:48:45;;;;;;;3.15;1.40;;;4.70;99.90;;;;;;5019019;28;20473;-69
2022/11/21 06:51:17;;;;;;;3.67;1.38;;;4.70;99.90;;;;;;5024755;28;20068;-68
2022/11/21 06:53:46;;;;;;;4.30;1.60;;;4.70;99.90;;;;;;5025822;28;20042;-69
2022/11/21 06:56:14;;;;;;;4.45;2.10;;;4.70;99.90;;;;;;5019055;28;20057;-68
2022/11/21 06:58:42;;;;;;;4.30;1.50;;;4.70;99.90;;;;;;5017053;28;20034;-67
2022/11/21 07:01:09;;;;;;;4.13;1.80;;;4.70;99.90;;;;;;5019985;28;20042;-70
2022/11/21 07:03:37;;;;;;;4.55;1.77;;;4.70;99.90;;;;;;5016489;28;20042;-68
2022/11/21 07:06:05;;;;;;;3.53;1.90;;;4.70;99.90;;;;;;5017921;28;20049;-69
2022/11/21 07:08:34;;;;;;;6.45;2.25;;;4.80;99.90;;;;;;5014082;28;20061;-68
2022/11/21 07:11:04;;;;;;;3.22;1.88;;;4.80;99.90;;;;;;5015627;28;20045;-71
2022/11/21 07:13:52;;;;;;;2.60;1.50;;;4.80;99.90;;;;;;5014887;28;20100;-71
2022/11/21 07:16:19;;;;;;;4.25;1.75;;;4.80;99.90;;;;;;5025410;28;20123;-70
2022/11/21 07:18:47;;;;;;;3.50;2.03;;;4.80;99.90;;;;;;5014319;28;20045;-70
2022/11/21 07:21:14;;;;;;;4.30;2.30;;;4.80;99.90;;;;;;5018956;28;20141;-70
2022/11/21 07:23:41;;;;;;;5.63;2.22;;;4.80;99.90;;;;;;5019287;28;20041;-72
2022/11/21 07:26:09;;;;;;;6.93;3.03;;;4.80;99.90;;;;;;5016742;28;20111;-72
2022/11/21 07:28:37;;;;;;;6.43;2.40;;;4.80;99.90;;;;;;5017309;28;20041;-74
2022/11/21 07:31:04;;;;;;;7.72;2.45;;;4.80;99.90;;;;;;5016194;28;20053;-71
2022/11/21 07:33:39;;;;;;;4.03;2.25;;;4.80;99.90;;;;;;5010930;28;20500;-71
2022/11/21 07:36:06;;;;;;;5.53;2.30;;;4.90;99.90;;;;;;5030213;28;20042;-71
2022/11/21 07:38:34;;;;;;;4.85;2.13;;;4.90;99.90;;;;;;5023507;28;20583;-70
2022/11/21 07:41:01;;;;;;;5.18;2.63;;;4.90;99.90;;;;;;5023395;28;20053;-71
2022/11/21 07:43:28;;;;;;;4.93;2.58;;;4.90;99.90;;;;;;5018031;28;20045;-69
2022/11/21 07:45:56;;;;;;;5.50;2.70;;;4.90;99.90;;;;;;5014063;28;20052;-69
2022/11/21 07:48:23;;;;;;;6.10;2.90;;;4.90;99.90;;;;;;5016367;28;20053;-69
2022/11/21 07:50:50;;;;;;;7.97;3.35;;;4.90;99.90;;;;;;5023729;28;20045;-70
2022/11/21 07:53:18;;;;;;;8.55;3.10;;;4.90;99.90;;;;;;5018413;28;20054;-69
2022/11/21 07:55:45;;;;;;;6.63;3.03;;;5.00;99.90;;;;;;5026242;28;20047;-69
2022/11/21 07:58:15;;;;;;;7.13;3.00;;;5.10;99.90;;;;;;5018480;28;20128;-70
2022/11/21 08:00:42;;;;;;;8.70;3.55;;;5.10;99.90;;;;;;5024526;28;20037;-69
2022/11/21 08:03:11;;;;;;;6.20;2.50;;;5.20;99.90;;;;;;5018120;28;20049;-69
2022/11/21 08:05:40;;;;;;;7.72;2.58;;;5.30;99.90;;;;;;4998493;28;20042;-71
2022/11/21 08:08:09;;;;;;;7.63;2.78;;;5.40;99.90;;;;;;5020236;28;20116;-70
2022/11/21 08:10:41;;;;;;;4.22;2.20;;;5.50;99.90;;;;;;5027342;28;20045;-70
2022/11/21 08:13:09;;;;;;;7.35;2.20;;;5.40;99.90;;;;;;5027162;28;20137;-69
2022/11/21 08:15:37;;;;;;;5.90;2.15;;;5.40;99.90;;;;;;5024112;28;20520;-69
2022/11/21 08:18:12;;;;;;;5.18;2.10;;;5.40;99.90;;;;;;5027346;28;20065;-70
2022/11/21 08:20:40;;;;;;;6.97;2.53;;;5.40;99.90;;;;;;5013725;28;20137;-71
2022/11/21 08:23:09;;;;;;;4.88;2.50;;;5.40;99.90;;;;;;5015786;28;20037;-71
2022/11/21 08:25:37;;;;;;;6.00;2.65;;;5.40;99.90;;;;;;5027305;28;20048;-71
2022/11/21 08:28:06;;;;;;;5.82;2.92;;;5.40;99.90;;;;;;5027754;28;20095;-69
2022/11/21 08:30:34;;;;;;;9.48;3.05;;;5.40;99.90;;;;;;5033036;28;20056;-69
2022/11/21 08:33:02;;;;;;;7.10;2.97;;;5.40;99.90;;;;;;5026987;28;20377;-69
2022/11/21 08:35:29;;;;;;;5.82;2.85;;;5.40;99.90;;;;;;5029913;28;20052;-68
2022/11/21 08:38:01;;;;;;;7.05;2.50;;;5.40;99.90;;;;;;5023676;28;20037;-69
2022/11/21 08:40:30;;;;;;;6.25;2.47;;;5.50;99.90;;;;;;5028773;28;20038;-69
2022/11/21 08:42:58;;;;;;;5.28;2.92;;;5.60;99.90;;;;;;5027771;28;20054;-69
2022/11/21 08:45:26;;;;;;;9.02;2.97;;;5.70;99.90;;;;;;5011931;28;20132;-69
2022/11/21 08:47:54;;;;;;;9.45;3.80;;;5.80;99.90;;;;;;5020148;28;20049;-69
2022/11/21 08:50:22;;;;;;;5.68;2.88;;;5.80;99.90;;;;;;5027674;28;20049;-70
2022/11/21 08:52:50;;;;;;;7.55;2.47;;;6.00;99.90;;;;;;5022835;28;20045;-68
2022/11/21 08:55:17;;;;;;;4.25;2.20;;;6.10;99.90;;;;;;5020293;28;20061;-71
2022/11/21 08:57:45;;;;;;;5.57;2.50;;;6.20;99.90;;;;;;5027012;28;20053;-69
2022/11/21 09:00:12;;;;;;;7.57;2.70;;;6.20;99.90;;;;;;5027167;28;20511;-71
2022/11/21 09:02:40;;;;;;;5.85;2.85;;;6.30;99.90;;;;;;5026690;28;20507;-71
2022/11/21 09:05:08;;;;;;;3.78;2.00;;;6.40;99.90;;;;;;5028793;28;20052;-68
2022/11/21 09:07:36;;;;;;;7.57;2.35;;;6.50;99.90;;;;;;5010079;28;20045;-71
2022/11/21 09:10:03;;;;;;;3.63;1.88;;;6.60;99.90;;;;;;5022574;28;20053;-72
2022/11/21 09:12:31;;;;;;;5.05;2.13;;;6.70;99.90;;;;;;5024687;28;20053;-70
2022/11/21 09:18:02;;;;;;;11.40;2.55;;;6.90;99.90;;;;;;5027363;28;20503;-70
2022/11/21 09:20:37;;;;;;;4.55;1.98;;;6.80;99.90;;;;;;5003672;28;20084;-67
2022/11/21 09:23:05;;;;;;;4.15;2.13;;;6.90;99.90;;;;;;5027206;28;20041;-72
2022/11/21 09:25:33;;;;;;;3.42;2.05;;;6.80;99.90;;;;;;5027224;28;20479;-69
2022/11/21 09:28:06;;;;;;;3.83;2.10;;;6.80;99.90;;;;;;5029560;28;20045;-71
2022/11/21 09:30:34;;;;;;;3.85;2.13;;;6.90;99.90;;;;;;5010329;28;20500;-70
2022/11/21 09:33:03;;;;;;;6.65;3.30;;;6.90;99.90;;;;;;5009702;28;20056;-70
2022/11/21 09:35:30;;;;;;;6.00;2.70;;;7.00;99.90;;;;;;4839735;28;20049;-70
2022/11/21 09:37:58;;;;;;;5.47;2.42;;;7.00;99.90;;;;;;5027990;28;20538;-68
2022/11/21 09:40:26;;;;;;;6.50;2.53;;;7.10;99.90;;;;;;5023188;28;20187;-71
2022/11/21 09:42:53;;;;;;;4.80;2.40;;;7.20;99.90;;;;;;4988609;28;20049;-69
2022/11/21 09:45:29;;;;;;;7.32;2.58;;;7.30;99.90;;;;;;4966626;28;20042;-71
2022/11/21 09:47:56;;;;;;;5.68;2.50;;;7.40;99.90;;;;;;5000421;28;20045;-69
2022/11/21 09:50:47;;;;;;;5.13;2.13;;;7.50;99.90;;;;;;4924196;28;20069;-72
2022/11/21 09:53:31;;;;;;;5.07;2.25;;;7.60;99.90;;;;;;5003107;28;20119;-70
2022/11/21 09:56:05;;;;;;;5.72;2.30;;;7.80;99.90;;;;;;5012033;28;20515;-71
2022/11/21 09:58:43;;;;;;;7.72;2.65;;;7.60;99.90;;;;;;5019702;28;20451;-70
2022/11/21 10:01:14;;;;;;;5.55;2.38;;;7.80;99.90;;;;;;5013703;28;20061;-70
2022/11/21 10:03:46;;;;;;;;;;;7.70;99.90;;;;;;5020980;28;20504;-71
2022/11/21 10:06:18;;;;;;;8.38;2.83;;;7.70;99.90;;;;;;5020399;28;20236;-70
2022/11/21 10:09:26;;;;;;;7.25;3.03;;;7.70;99.90;;;;;;5016064;28;20054;-70
2022/11/21 10:12:38;;;;;;;6.05;2.70;;;7.70;99.90;;;;;;5017521;28;20476;-70
2022/11/21 10:15:24;;;;;;;8.25;3.15;;;7.60;99.90;;;;;;5018211;28;20045;-70
2022/11/21 10:18:33;;;;;;;6.85;3.08;;;7.70;99.90;;;;;;4999526;28;20116;-70
2022/11/21 10:21:12;;;;;;;7.68;2.60;;;7.70;99.90;;;;;;4988454;28;20140;-71
2022/11/21 10:23:39;;;;;;;7.15;2.72;;;7.70;99.90;;;;;;5004515;28;20056;-68
2022/11/21 10:26:20;;;;;;;11.10;3.00;;;7.70;99.90;;;;;;4981479;28;20061;-68
2022/11/21 10:28:53;;;;;;;5.72;2.88;;;7.70;99.90;;;;;;4985858;28;20050;-71
2022/11/21 10:31:21;;;;;;;4.80;2.70;;;7.70;99.90;;;;;;5002546;28;20068;-70
2022/11/21 10:33:51;;;;;;;4.75;2.30;;;7.70;99.90;;;;;;4986772;28;20054;-69
2022/11/21 10:36:24;;;;;;;6.43;3.15;;;7.70;99.90;;;;;;5004744;28;20093;-69
2022/11/21 10:38:57;;;;;;;6.22;3.15;;;7.80;99.90;;;;;;4987535;28;20038;-69
2022/11/21 10:41:56;;;;;;;6.70;2.58;;;7.70;99.90;;;;;;4991039;28;20053;-71
2022/11/21 10:47:27;;;;;;;5.60;2.58;;;7.90;99.90;;;;;;5008511;28;20144;-69
2022/11/21 10:50:32;;;;;;;6.53;2.33;;;7.90;99.90;;;;;;4984792;28;20568;-69
2022/11/21 10:56:11;;;;;;;4.70;2.30;;;7.70;99.90;;;;;;5019607;28;20511;-69
2022/11/21 10:58:50;;;;;;;6.93;2.50;;;7.60;99.90;;;;;;5003789;28;20416;-67
2022/11/21 11:01:24;;;;;;;5.85;2.20;;;7.50;99.90;;;;;;5023812;28;20393;-69
2022/11/21 11:04:10;;;;;;;5.47;2.20;;;7.40;99.90;;;;;;5025335;28;20046;-69
2022/11/21 11:06:55;;;;;;;5.53;2.38;;;7.20;99.90;;;;;;5025476;28;20427;-68
2022/11/21 11:09:27;;;;;;;4.57;2.33;;;7.20;99.90;;;;;;5007912;28;20715;-68
2022/11/21 11:12:20;;;;;;;4.72;2.42;;;7.40;99.90;;;;;;5030982;28;20128;-68
2022/11/21 11:14:53;;;;;;;7.90;3.03;;;7.70;99.90;;;;;;5022631;28;20045;-68
2022/11/21 11:17:32;;;;;;;5.85;2.30;;;8.50;99.90;;;;;;5028088;28;20508;-68
2022/11/21 11:20:25;;;;;;;3.08;2.30;;;9.30;99.90;;;;;;5029842;28;20042;-70
2022/11/21 11:22:52;;;;;;;;;;;9.90;99.90;;;;;;5028115;28;20500;-69
2022/11/21 11:25:21;;;;;;;5.82;2.47;;;10.00;99.90;;;;;;5031341;28;19921;-70
2022/11/21 11:27:48;;;;;;;7.47;2.88;;;9.60;99.90;;;;;;5031865;28;20448;-68
2022/11/21 11:30:18;;;;;;;2.95;2.30;;;9.30;99.90;;;;;;5019532;28;20360;-68
2022/11/21 11:32:45;;;;;;;5.82;2.60;;;8.40;99.90;;;;;;5024610;28;20053;-68
2022/11/21 11:35:16;;;;;;;4.93;2.72;;;8.10;99.90;;;;;;4997576;28;20084;-69
2022/11/21 11:38:03;;;;;;;4.20;2.50;;;7.60;99.90;;;;;;4998790;28;20072;-69
2022/11/21 11:40:35;;;;;;;5.10;2.83;;;7.50;99.90;;;;;;5029953;28;20164;-69
2022/11/21 11:52:26;;;;;;;5.55;2.58;;;7.50;99.90;;;;;;5028538;28;20120;-68
2022/11/21 11:55:07;;;;;;;4.72;2.10;;;7.20;99.90;;;;;;5030022;28;20049;-70
2022/11/21 11:57:36;;;;;;;5.70;2.47;;;7.40;99.90;;;;;;4996886;28;20049;-71
2022/11/21 12:00:32;;;;;;;4.35;2.00;;;7.40;99.90;;;;;;5028907;28;20662;-70
2022/11/21 12:03:18;;;;;;;3.25;2.05;;;7.40;99.90;;;;;;5017821;28;20061;-69
2022/11/21 12:06:11;;;;;;;4.38;2.00;;;7.40;99.90;;;;;;5007583;28;20049;-70
2022/11/21 12:08:57;;;;;;;5.15;2.30;;;7.50;99.90;;;;;;5028929;28;20089;-70
2022/11/21 12:17:40;;;;;;;5.85;2.67;;;7.30;99.90;;;;;;5034208;28;20044;-69
2022/11/21 12:20:19;;;;;;;5.72;2.63;;;7.40;99.90;;;;;;5030294;28;20496;-69
2022/11/21 12:22:49;;;;;;;9.77;2.83;;;7.50;99.90;;;;;;5029131;28;20033;-70
2022/11/21 12:25:20;;;;;;;2.95;2.20;;;7.50;99.90;;;;;;5007989;28;20129;-70
2022/11/21 12:27:52;;;;;;;4.80;2.58;;;7.70;99.90;;;;;;5024506;28;20060;-70
2022/11/21 12:30:43;;;;;;;5.40;2.55;;;8.00;99.90;;;;;;5023486;28;20038;-70
2022/11/21 12:33:17;;;;;;;5.80;2.50;;;8.20;99.90;;;;;;5029466;28;20041;-71
2022/11/21 12:35:53;;;;;;;6.97;2.53;;;8.40;99.90;;;;;;5014962;28;20041;-69
2022/11/21 12:38:45;;;;;;;5.70;3.13;;;8.90;99.90;;;;;;5023578;28;20048;-69
2022/11/21 12:44:51;;;;;;;6.78;3.15;;;10.40;99.90;;;;;;5035642;28;20041;-70
2022/11/21 12:54:37;;;;;;;5.50;3.67;;;9.20;99.90;;;;;;5025948;28;20507;-69
2022/11/21 12:57:17;;;;;;;8.35;2.83;;;8.80;99.90;;;;;;5017305;28;20108;-71
2022/11/21 13:00:07;;;;;;;8.02;3.75;;;10.30;99.90;;;;;;5017557;28;20060;-70
2022/11/21 13:03:12;;;;;;;5.45;2.88;;;12.00;99.90;;;;;;5028592;28;20111;-70
2022/11/21 13:05:44;;;;;;;6.63;3.08;;;12.70;99.90;;;;;;5021454;28;20045;-70
2022/11/21 13:08:36;;;;;;;5.22;3.30;;;13.30;99.90;;;;;;5024159;28;20076;-69
2022/11/21 13:14:44;;;;;;;7.00;3.22;;;14.30;99.90;;;;;;5029571;28;20368;-68
2022/11/21 13:17:16;;;;;;;5.32;3.60;;;14.90;99.90;;;;;;5007001;28;20046;-69
2022/11/21 13:19:43;;;;;;;;;;;14.10;99.90;;;;;;4991971;28;20045;-68
2022/11/21 13:22:34;;;;;;;6.45;3.20;;;12.40;99.90;;;;;;4990629;28;20011;-71
2022/11/21 13:25:08;;;;;;;6.23;3.37;;;11.60;99.90;;;;;;4986628;28;20467;-68
2022/11/21 13:27:38;;;;;;;8.85;3.50;;;10.80;99.90;;;;;;5009603;28;20042;-70
2022/11/21 13:30:06;;;;;;;6.88;3.55;;;10.20;99.90;;;;;;4974668;28;20189;-71
2022/11/21 13:32:43;;;;;;;5.03;3.22;;;9.90;99.90;;;;;;5007140;28;20053;-72
2022/11/21 13:35:37;;;;;;;8.02;3.67;;;9.90;99.90;;;;;;4989407;28;20459;-71
2022/11/21 13:38:07;;;;;;;6.13;3.58;;;9.70;99.90;;;;;;4991027;28;20050;-70
2022/11/21 13:40:38;;;;;;;7.18;3.38;;;10.00;99.90;;;;;;5005958;28;20050;-70
2022/11/21 13:43:08;;;;;;;7.55;3.65;;;10.30;99.90;;;;;;4986745;28;20573;-70
2022/11/21 13:45:57;;;;;;;7.88;4.47;;;12.00;99.90;;;;;;5014796;28;20038;-69
2022/11/21 13:48:33;;;;;;;5.93;3.83;;;14.10;99.90;;;;;;5026532;28;20073;-70
2022/11/21 13:51:23;;;;;;;6.00;4.10;;;15.80;99.90;;;;;;5019692;28;20050;-69
2022/11/21 13:53:52;;;;;;;;;;;16.00;99.90;;;;;;5006874;28;20416;-69
2022/11/21 13:56:33;;;;;;;5.20;3.85;;;16.10;99.90;;;;;;5026549;28;19921;-70
2022/11/21 13:59:11;;;;;;;5.85;3.90;;;16.60;99.90;;;;;;5008846;28;20153;-70
2022/11/21 14:01:47;;;;;;;5.50;4.18;;;17.10;99.90;;;;;;5033698;28;20045;-70